createdAt,value
2022-08-20T00:00:48.215Z,0.00
2022-08-20T00:01:48.251Z,0.00
2022-08-20T00:02:48.188Z,0.00
2022-08-20T00:03:53.331Z,0.00
2022-08-20T00:04:49.147Z,0.00
2022-08-20T00:05:48.158Z,0.00
2022-08-20T00:06:48.125Z,0.00
2022-08-20T00:07:48.129Z,0.00
2022-08-20T00:08:48.139Z,0.00
2022-08-20T00:09:48.087Z,0.00
2022-08-20T00:10:49.753Z,0.00
2022-08-20T00:11:49.057Z,0.00
2022-08-20T00:12:48.048Z,0.00
2022-08-20T00:13:48.051Z,0.00
2022-08-20T00:14:48.020Z,0.00
2022-08-20T00:15:48.029Z,0.00
2022-08-20T00:16:48.003Z,0.00
2022-08-20T00:17:47.979Z,0.00
2022-08-20T00:18:47.984Z,0.00
2022-08-20T00:19:48.060Z,0.00
2022-08-20T00:20:47.940Z,0.00
2022-08-20T00:21:47.943Z,0.00
2022-08-20T00:22:47.911Z,0.00
2022-08-20T00:23:47.915Z,0.00
2022-08-20T00:24:47.897Z,0.00
2022-08-20T00:25:47.992Z,0.00
2022-08-20T00:26:51.979Z,0.00
2022-08-20T00:27:47.865Z,0.00
2022-08-20T00:28:47.851Z,0.00
2022-08-20T00:29:47.826Z,0.00
2022-08-20T00:30:47.821Z,0.00
2022-08-20T00:31:47.795Z,0.00
2022-08-20T00:32:47.775Z,0.00
2022-08-20T00:33:47.781Z,0.00
2022-08-20T00:34:47.747Z,0.00
2022-08-20T00:35:47.760Z,0.00
2022-08-20T00:36:47.852Z,0.00
2022-08-20T00:37:47.716Z,0.00
2022-08-20T00:38:47.711Z,0.00
2022-08-20T00:39:47.724Z,0.00
2022-08-20T00:40:47.677Z,0.00
2022-08-20T00:41:47.682Z,0.00
2022-08-20T00:42:47.702Z,0.00
2022-08-20T00:43:47.639Z,0.00
2022-08-20T00:44:47.619Z,0.00
2022-08-20T00:45:47.632Z,0.00
2022-08-20T00:46:47.598Z,0.00
2022-08-20T00:47:51.651Z,0.00
2022-08-20T00:48:47.606Z,0.00
2022-08-20T00:49:47.562Z,0.00
2022-08-20T00:50:47.556Z,0.00
2022-08-20T00:51:47.531Z,0.00
2022-08-20T00:52:49.796Z,0.00
2022-08-20T00:53:47.525Z,0.00
2022-08-20T00:54:47.623Z,0.00
2022-08-20T00:55:47.497Z,0.00
2022-08-20T00:56:47.479Z,0.00
2022-08-20T00:57:59.148Z,0.00
2022-08-20T00:58:48.436Z,0.00
2022-08-20T00:59:47.452Z,0.00
2022-08-20T01:00:47.429Z,0.00
2022-08-20T01:01:55.229Z,0.00
2022-08-20T01:02:48.399Z,0.00
2022-08-20T01:03:47.377Z,0.00
2022-08-20T01:04:47.359Z,0.00
2022-08-20T01:05:47.369Z,0.00
2022-08-20T01:06:47.337Z,0.00
2022-08-20T01:07:47.340Z,0.00
2022-08-20T01:08:47.322Z,0.00
2022-08-20T01:09:57.896Z,0.00
2022-08-20T01:10:48.294Z,0.00
2022-08-20T01:11:47.271Z,0.00
2022-08-20T01:12:47.251Z,0.00
2022-08-20T01:13:47.264Z,0.00
2022-08-20T01:14:47.231Z,0.00
2022-08-20T01:15:47.264Z,0.00
2022-08-20T01:16:47.217Z,0.00
2022-08-20T01:17:47.193Z,0.00
2022-08-20T01:18:47.199Z,0.00
2022-08-20T01:19:47.170Z,0.00
2022-08-20T01:20:47.153Z,0.00
2022-08-20T01:21:49.886Z,0.00
2022-08-20T01:22:47.131Z,0.00
2022-08-20T01:23:47.128Z,0.00
2022-08-20T01:24:47.111Z,0.00
2022-08-20T01:25:47.086Z,0.00
2022-08-20T01:26:47.087Z,0.00
2022-08-20T01:27:47.090Z,0.00
2022-08-20T01:28:48.047Z,0.00
2022-08-20T01:29:47.051Z,0.00
2022-08-20T01:30:47.032Z,0.00
2022-08-20T01:31:47.008Z,0.00
2022-08-20T01:32:46.989Z,0.00
2022-08-20T01:33:47.002Z,0.00
2022-08-20T01:34:46.959Z,0.00
2022-08-20T01:35:46.973Z,0.00
2022-08-20T01:36:46.954Z,0.00
2022-08-20T01:37:46.930Z,0.00
2022-08-20T01:38:54.315Z,0.00
2022-08-20T01:39:47.961Z,7.00
2022-08-20T01:40:46.892Z,0.00
2022-08-20T01:41:46.895Z,0.00
2022-08-20T01:42:58.674Z,0.00
2022-08-20T01:43:47.897Z,0.00
2022-08-20T01:44:46.848Z,0.00
2022-08-20T01:45:46.823Z,7.00
2022-08-20T01:46:46.813Z,0.00
2022-08-20T01:47:46.818Z,0.00
2022-08-20T01:48:46.798Z,0.00
2022-08-20T01:49:46.804Z,0.00
2022-08-20T01:50:46.769Z,0.00
2022-08-20T01:51:46.746Z,0.00
2022-08-20T01:52:46.734Z,0.00
2022-08-20T01:53:46.741Z,0.00
2022-08-20T01:54:46.706Z,0.00
2022-08-20T01:55:46.752Z,0.00
2022-08-20T01:56:46.691Z,0.00
2022-08-20T01:57:46.668Z,0.00
2022-08-20T01:58:46.670Z,0.00
2022-08-20T01:59:46.648Z,0.00
2022-08-20T02:00:46.629Z,0.00
2022-08-20T02:01:47.212Z,0.00
2022-08-20T02:02:46.613Z,0.00
2022-08-20T02:03:46.591Z,0.00
2022-08-20T02:04:46.572Z,0.00
2022-08-20T02:05:46.576Z,0.00
2022-08-20T02:06:56.253Z,0.00
2022-08-20T02:07:47.556Z,0.00
2022-08-20T02:08:46.538Z,0.00
2022-08-20T02:09:46.512Z,0.00
2022-08-20T02:10:46.509Z,0.00
2022-08-20T02:11:46.483Z,0.00
2022-08-20T02:12:46.473Z,0.00
2022-08-20T02:13:46.478Z,0.00
2022-08-20T02:14:46.447Z,0.00
2022-08-20T02:15:46.449Z,0.00
2022-08-20T02:16:52.392Z,0.00
2022-08-20T02:17:47.515Z,0.00
2022-08-20T02:18:46.400Z,0.00
2022-08-20T02:19:46.377Z,0.00
2022-08-20T02:20:46.366Z,0.00
2022-08-20T02:21:46.374Z,0.00
2022-08-20T02:22:50.419Z,0.00
2022-08-20T02:23:46.349Z,0.00
2022-08-20T02:24:46.322Z,0.00
2022-08-20T02:25:46.300Z,0.00
2022-08-20T02:26:46.294Z,0.00
2022-08-20T02:27:46.336Z,0.00
2022-08-20T02:28:46.259Z,0.00
2022-08-20T02:29:46.264Z,0.00
2022-08-20T02:30:46.230Z,0.00
2022-08-20T02:32:24.928Z,0.00
2022-08-20T02:32:47.217Z,0.00
2022-08-20T02:34:14.800Z,0.00
2022-08-20T02:34:47.180Z,0.00
2022-08-20T02:35:46.185Z,0.00
2022-08-20T02:36:46.167Z,0.00
2022-08-20T02:37:46.143Z,0.00
2022-08-20T02:38:46.249Z,0.00
2022-08-20T02:39:46.147Z,0.00
2022-08-20T02:40:46.095Z,0.00
2022-08-20T02:41:46.106Z,0.00
2022-08-20T02:42:46.074Z,0.00
2022-08-20T02:43:46.078Z,0.00
2022-08-20T02:44:46.090Z,0.00
2022-08-20T02:45:46.037Z,0.00
2022-08-20T02:46:46.031Z,0.00
2022-08-20T02:47:46.007Z,0.00
2022-08-20T02:48:45.995Z,0.00
2022-08-20T02:49:46.000Z,0.00
2022-08-20T02:50:45.983Z,0.00
2022-08-20T02:51:45.960Z,0.00
2022-08-20T02:52:51.618Z,0.00
2022-08-20T02:53:46.944Z,0.00
2022-08-20T02:54:45.910Z,0.00
2022-08-20T02:55:45.953Z,0.00
2022-08-20T02:56:45.903Z,0.00
2022-08-20T02:57:45.878Z,0.00
2022-08-20T02:58:46.875Z,0.00
2022-08-20T02:59:45.853Z,0.00
2022-08-20T03:00:45.832Z,0.00
2022-08-20T03:01:45.877Z,0.00
2022-08-20T03:02:45.803Z,0.00
2022-08-20T03:03:45.815Z,0.00
2022-08-20T03:04:45.803Z,0.00
2022-08-20T03:05:45.781Z,0.00
2022-08-20T03:06:45.755Z,0.00
2022-08-20T03:07:45.888Z,0.00
2022-08-20T03:08:45.742Z,0.00
2022-08-20T03:09:45.715Z,0.00
2022-08-20T03:10:45.710Z,0.00
2022-08-20T03:11:45.694Z,0.00
2022-08-20T03:12:45.676Z,0.00
2022-08-20T03:13:45.681Z,0.00
2022-08-20T03:14:45.647Z,0.00
2022-08-20T03:15:45.651Z,0.00
2022-08-20T03:16:45.632Z,0.00
2022-08-20T03:17:45.608Z,0.00
2022-08-20T03:18:45.641Z,0.00
2022-08-20T03:19:45.588Z,0.00
2022-08-20T03:20:45.974Z,0.00
2022-08-20T03:21:45.575Z,0.00
2022-08-20T03:22:45.564Z,0.00
2022-08-20T03:23:45.530Z,0.00
2022-08-20T03:24:45.551Z,0.00
2022-08-20T03:25:45.515Z,0.00
2022-08-20T03:26:45.493Z,0.00
2022-08-20T03:27:45.486Z,0.00
2022-08-20T03:28:45.484Z,0.00
2022-08-20T03:29:45.444Z,0.00
2022-08-20T03:30:45.457Z,0.00
2022-08-20T03:31:45.424Z,0.00
2022-08-20T03:32:45.414Z,0.00
2022-08-20T03:33:53.011Z,0.00
2022-08-20T03:34:46.385Z,0.00
2022-08-20T03:35:45.409Z,0.00
2022-08-20T03:36:45.378Z,0.00
2022-08-20T03:37:45.755Z,0.00
2022-08-20T03:38:45.337Z,0.00
2022-08-20T03:39:45.360Z,0.00
2022-08-20T03:40:45.322Z,0.00
2022-08-20T03:41:45.318Z,0.00
2022-08-20T03:42:45.302Z,0.00
2022-08-20T03:43:45.268Z,1.00
2022-08-20T03:44:45.261Z,1.00
2022-08-20T03:45:45.252Z,1.00
2022-08-20T03:46:45.231Z,1.00
2022-08-20T03:47:45.248Z,0.00
2022-08-20T03:48:45.215Z,2.00
2022-08-20T03:49:45.181Z,2.00
2022-08-20T03:50:45.194Z,2.00
2022-08-20T03:51:57.984Z,4.00
2022-08-20T03:52:46.172Z,0.00
2022-08-20T03:53:45.149Z,4.00
2022-08-20T03:54:45.136Z,7.00
2022-08-20T03:55:45.389Z,6.00
2022-08-20T03:56:46.101Z,10.00
2022-08-20T03:57:45.088Z,13.00
2022-08-20T03:58:45.072Z,15.00
2022-08-20T03:59:45.059Z,17.00
2022-08-20T04:00:45.056Z,18.00
2022-08-20T04:01:46.728Z,20.00
2022-08-20T04:02:45.028Z,25.00
2022-08-20T04:03:45.001Z,18.00
2022-08-20T04:04:44.987Z,31.00
2022-08-20T04:05:44.981Z,35.00
2022-08-20T04:06:44.967Z,38.00
2022-08-20T04:07:44.952Z,43.00
2022-08-20T04:08:44.951Z,49.00
2022-08-20T04:09:44.918Z,50.00
2022-08-20T04:10:44.910Z,54.00
2022-08-20T04:11:44.903Z,60.00
2022-08-20T04:12:52.750Z,66.00
2022-08-20T04:13:45.861Z,66.00
2022-08-20T04:14:44.864Z,70.00
2022-08-20T04:15:44.832Z,73.00
2022-08-20T04:16:44.823Z,81.00
2022-08-20T04:17:44.823Z,85.00
2022-08-20T04:19:01.730Z,92.00
2022-08-20T04:19:45.795Z,98.00
2022-08-20T04:20:44.786Z,102.00
2022-08-20T04:21:44.754Z,117.00
2022-08-20T04:22:44.768Z,116.00
2022-08-20T04:23:45.765Z,130.00
2022-08-20T04:24:44.716Z,127.00
2022-08-20T04:25:44.717Z,136.00
2022-08-20T04:26:44.693Z,137.00
2022-08-20T04:27:44.687Z,142.00
2022-08-20T04:28:44.679Z,152.00
2022-08-20T04:29:44.675Z,168.00
2022-08-20T04:30:51.628Z,182.00
2022-08-20T04:31:45.619Z,183.00
2022-08-20T04:32:44.610Z,202.00
2022-08-20T04:33:44.610Z,212.00
2022-08-20T04:34:44.581Z,234.00
2022-08-20T04:35:44.580Z,253.00
2022-08-20T04:36:44.572Z,277.00
2022-08-20T04:37:44.530Z,293.00
2022-08-20T04:38:49.793Z,319.00
2022-08-20T04:39:45.565Z,335.00
2022-08-20T04:40:44.620Z,357.00
2022-08-20T04:41:44.496Z,383.00
2022-08-20T04:42:44.485Z,402.00
2022-08-20T04:43:44.452Z,431.00
2022-08-20T04:44:44.452Z,463.00
2022-08-20T04:45:44.449Z,490.00
2022-08-20T04:46:44.429Z,516.00
2022-08-20T04:47:44.417Z,526.00
2022-08-20T04:48:49.180Z,554.00
2022-08-20T04:49:45.374Z,563.00
2022-08-20T04:50:44.380Z,595.00
2022-08-20T04:51:44.355Z,618.00
2022-08-20T04:52:44.336Z,672.00
2022-08-20T04:53:44.330Z,697.00
2022-08-20T04:54:45.316Z,723.00
2022-08-20T04:55:44.310Z,758.00
2022-08-20T04:56:44.321Z,774.00
2022-08-20T04:57:44.267Z,797.00
2022-08-20T04:58:44.257Z,820.00
2022-08-20T04:59:44.260Z,835.00
2022-08-20T05:00:44.251Z,851.00
2022-08-20T05:01:44.220Z,870.00
2022-08-20T05:02:44.251Z,871.00
2022-08-20T05:03:44.190Z,888.00
2022-08-20T05:04:44.180Z,884.00
2022-08-20T05:06:19.844Z,882.00
2022-08-20T05:06:44.151Z,884.00
2022-08-20T05:07:44.131Z,886.00
2022-08-20T05:08:44.164Z,888.00
2022-08-20T05:09:44.332Z,881.00
2022-08-20T05:10:44.113Z,890.00
2022-08-20T05:11:44.094Z,898.00
2022-08-20T05:12:44.071Z,907.00
2022-08-20T05:13:45.083Z,913.00
2022-08-20T05:14:44.057Z,894.00
2022-08-20T05:15:44.038Z,886.00
2022-08-20T05:16:44.016Z,868.00
2022-08-20T05:17:44.008Z,860.00
2022-08-20T05:18:43.992Z,853.00
2022-08-20T05:19:43.975Z,861.00
2022-08-20T05:20:43.978Z,856.00
2022-08-20T05:21:43.946Z,851.00
2022-08-20T05:22:43.952Z,824.00
2022-08-20T05:23:43.931Z,807.00
2022-08-20T05:24:43.946Z,789.00
2022-08-20T05:25:43.904Z,770.00
2022-08-20T05:26:43.878Z,768.00
2022-08-20T05:27:47.745Z,800.00
2022-08-20T05:28:57.822Z,836.00
2022-08-20T05:29:44.869Z,918.00
2022-08-20T05:30:43.843Z,1012.00
2022-08-20T05:31:43.823Z,1145.00
2022-08-20T05:32:44.660Z,1271.00
2022-08-20T05:33:43.802Z,1377.00
2022-08-20T05:34:43.771Z,1445.00
2022-08-20T05:35:43.892Z,1497.00
2022-08-20T05:36:43.764Z,1540.00
2022-08-20T05:37:43.722Z,1569.00
2022-08-20T05:38:43.736Z,1591.00
2022-08-20T05:39:44.737Z,1607.00
2022-08-20T05:40:43.693Z,1623.00
2022-08-20T05:41:43.688Z,1654.00
2022-08-20T05:42:43.664Z,1691.00
2022-08-20T05:43:43.645Z,1723.00
2022-08-20T05:44:43.657Z,1772.00
2022-08-20T05:45:43.639Z,1804.00
2022-08-20T05:46:43.750Z,1827.00
2022-08-20T05:47:43.596Z,1866.00
2022-08-20T05:48:43.599Z,1900.00
2022-08-20T05:49:43.566Z,1923.00
2022-08-20T05:50:43.571Z,1952.00
2022-08-20T05:51:43.553Z,1951.00
2022-08-20T05:52:43.568Z,1958.00
2022-08-20T05:53:43.531Z,2014.00
2022-08-20T05:54:43.499Z,2073.00
2022-08-20T05:55:43.488Z,2131.00
2022-08-20T05:56:43.494Z,2146.00
2022-08-20T05:57:43.461Z,2119.00
2022-08-20T05:58:43.493Z,2066.00
2022-08-20T05:59:43.445Z,1993.00
2022-08-20T06:00:43.420Z,2025.00
2022-08-20T06:01:43.418Z,2089.00
2022-08-20T06:02:43.413Z,2201.00
2022-08-20T06:03:43.395Z,2234.00
2022-08-20T06:04:43.373Z,2138.00
2022-08-20T06:05:43.365Z,1907.00
2022-08-20T06:06:45.834Z,1606.00
2022-08-20T06:07:43.323Z,1482.00
2022-08-20T06:08:43.337Z,1399.00
2022-08-20T06:09:44.532Z,1316.00
2022-08-20T06:10:43.374Z,1271.00
2022-08-20T06:11:43.287Z,1264.00
2022-08-20T06:12:43.265Z,1262.00
2022-08-20T06:13:43.259Z,1275.00
2022-08-20T06:14:43.271Z,1240.00
2022-08-20T06:15:43.215Z,1259.00
2022-08-20T06:16:57.169Z,1231.00
2022-08-20T06:17:44.209Z,1148.00
2022-08-20T06:18:43.187Z,1053.00
2022-08-20T06:19:44.452Z,1040.00
2022-08-20T06:20:43.308Z,1044.00
2022-08-20T06:21:43.138Z,984.00
2022-08-20T06:22:43.151Z,907.00
2022-08-20T06:23:54.381Z,833.00
2022-08-20T06:24:44.100Z,764.00
2022-08-20T06:25:43.103Z,739.00
2022-08-20T06:26:43.121Z,702.00
2022-08-20T06:27:43.061Z,655.00
2022-08-20T06:28:43.074Z,608.00
2022-08-20T06:29:43.032Z,559.00
2022-08-20T06:30:43.036Z,485.00
2022-08-20T06:31:43.023Z,428.00
2022-08-20T06:32:43.003Z,407.00
2022-08-20T06:33:42.998Z,431.00
2022-08-20T06:34:50.555Z,465.00
2022-08-20T06:35:43.953Z,488.00
2022-08-20T06:36:42.958Z,511.00
2022-08-20T06:37:42.935Z,557.00
2022-08-20T06:38:42.939Z,617.00
2022-08-20T06:39:42.941Z,742.00
2022-08-20T06:40:42.896Z,1100.00
2022-08-20T06:41:42.892Z,1414.00
2022-08-20T06:42:47.793Z,1488.00
2022-08-20T06:43:43.847Z,1392.00
2022-08-20T06:44:42.859Z,1249.00
2022-08-20T06:45:42.818Z,1020.00
2022-08-20T06:46:42.833Z,788.00
2022-08-20T06:47:42.812Z,689.00
2022-08-20T06:48:42.909Z,592.00
2022-08-20T06:49:42.769Z,514.00
2022-08-20T06:50:47.613Z,499.00
2022-08-20T06:51:43.753Z,520.00
2022-08-20T06:52:52.681Z,560.00
2022-08-20T06:53:43.754Z,775.00
2022-08-20T06:54:42.708Z,1066.00
2022-08-20T06:55:42.692Z,1102.00
2022-08-20T06:56:43.697Z,1093.00
2022-08-20T06:57:42.663Z,1199.00
2022-08-20T06:58:42.671Z,1506.00
2022-08-20T06:59:42.654Z,1564.00
2022-08-20T07:00:42.681Z,1833.00
2022-08-20T07:01:42.640Z,2103.00
2022-08-20T07:02:42.605Z,2202.00
2022-08-20T07:03:54.386Z,2257.00
2022-08-20T07:04:43.618Z,2299.00
2022-08-20T07:05:42.577Z,2370.00
2022-08-20T07:06:42.546Z,2479.00
2022-08-20T07:07:42.533Z,2453.00
2022-08-20T07:08:42.538Z,2446.00
2022-08-20T07:09:42.505Z,2519.00
2022-08-20T07:10:42.541Z,2616.00
2022-08-20T07:11:42.491Z,2606.00
2022-08-20T07:12:42.475Z,2693.00
2022-08-20T07:13:42.463Z,2765.00
2022-08-20T07:14:42.748Z,2730.00
2022-08-20T07:15:42.431Z,2531.00
2022-08-20T07:16:42.433Z,2453.00
2022-08-20T07:17:42.401Z,2457.00
2022-08-20T07:18:42.405Z,2351.00
2022-08-20T07:19:42.384Z,2827.00
2022-08-20T07:20:42.361Z,3043.00
2022-08-20T07:21:42.383Z,3043.00
2022-08-20T07:22:42.355Z,3507.00
2022-08-20T07:23:42.335Z,3784.00
2022-08-20T07:24:45.957Z,3780.00
2022-08-20T07:25:43.307Z,3598.00
2022-08-20T07:26:42.282Z,3392.00
2022-08-20T07:27:42.294Z,3554.00
2022-08-20T07:28:42.268Z,4180.00
2022-08-20T07:29:42.237Z,4952.00
2022-08-20T07:30:55.966Z,5426.00
2022-08-20T07:31:43.230Z,5693.00
2022-08-20T07:32:45.288Z,6317.00
2022-08-20T07:33:44.594Z,6371.00
2022-08-20T07:34:43.643Z,5790.00
2022-08-20T07:35:42.165Z,5142.00
2022-08-20T07:36:42.170Z,4786.00
2022-08-20T07:37:42.153Z,4279.00
2022-08-20T07:38:42.119Z,3966.00
2022-08-20T07:39:42.168Z,3859.00
2022-08-20T07:40:42.111Z,4157.00
2022-08-20T07:41:42.081Z,4751.00
2022-08-20T07:42:42.080Z,4857.00
2022-08-20T07:43:42.082Z,5017.00
2022-08-20T07:44:42.161Z,5007.00
2022-08-20T07:45:42.044Z,4922.00
2022-08-20T07:46:43.011Z,4813.00
2022-08-20T07:47:42.002Z,4947.00
2022-08-20T07:48:42.037Z,4904.00
2022-08-20T07:49:41.972Z,4796.00
2022-08-20T07:50:43.115Z,4631.00
2022-08-20T07:51:41.966Z,5222.00
2022-08-20T07:52:41.933Z,6470.00
2022-08-20T07:53:41.923Z,7252.00
2022-08-20T07:54:41.928Z,6886.00
2022-08-20T07:55:41.938Z,6556.00
2022-08-20T07:56:42.887Z,6830.00
2022-08-20T07:57:41.892Z,7702.00
2022-08-20T07:58:41.856Z,7694.00
2022-08-20T07:59:41.846Z,7073.00
2022-08-20T08:00:41.903Z,7164.00
2022-08-20T08:01:41.837Z,6684.00
2022-08-20T08:02:41.823Z,6316.00
2022-08-20T08:03:49.723Z,6694.00
2022-08-20T08:04:42.787Z,7430.00
2022-08-20T08:05:41.781Z,7686.00
2022-08-20T08:06:41.769Z,7812.00
2022-08-20T08:07:43.099Z,7975.00
2022-08-20T08:08:41.742Z,8070.00
2022-08-20T08:09:41.738Z,8200.00
2022-08-20T08:10:41.700Z,8842.00
2022-08-20T08:11:46.488Z,8952.00
2022-08-20T08:12:42.685Z,9052.00
2022-08-20T08:13:41.662Z,9375.00
2022-08-20T08:14:41.663Z,9004.00
2022-08-20T08:15:41.655Z,7520.00
2022-08-20T08:16:41.622Z,6568.00
2022-08-20T08:17:41.626Z,5628.00
2022-08-20T08:18:41.596Z,4867.00
2022-08-20T08:19:41.591Z,4402.00
2022-08-20T08:20:46.680Z,3972.00
2022-08-20T08:21:42.563Z,3694.00
2022-08-20T08:22:41.586Z,3585.00
2022-08-20T08:23:41.552Z,3687.00
2022-08-20T08:24:41.517Z,4023.00
2022-08-20T08:25:42.508Z,4705.00
2022-08-20T08:26:41.500Z,5059.00
2022-08-20T08:27:41.491Z,5012.00
2022-08-20T08:28:41.499Z,4753.00
2022-08-20T08:29:41.469Z,4510.00
2022-08-20T08:30:41.435Z,4316.00
2022-08-20T08:31:41.428Z,4259.00
2022-08-20T08:32:41.421Z,4493.00
2022-08-20T08:33:41.401Z,5324.00
2022-08-20T08:34:41.393Z,6220.00
2022-08-20T08:35:41.413Z,6589.00
2022-08-20T08:36:41.352Z,6522.00
2022-08-20T08:37:41.365Z,6548.00
2022-08-20T08:38:41.331Z,6106.00
2022-08-20T08:39:41.390Z,5617.00
2022-08-20T08:40:41.315Z,5266.00
2022-08-20T08:41:41.292Z,4966.00
2022-08-20T08:42:43.210Z,4755.00
2022-08-20T08:43:41.280Z,4579.00
2022-08-20T08:44:41.244Z,4337.00
2022-08-20T08:45:41.286Z,4153.00
2022-08-20T08:46:41.215Z,4066.00
2022-08-20T08:47:41.213Z,4292.00
2022-08-20T08:48:41.211Z,4752.00
2022-08-20T08:49:41.193Z,5484.00
2022-08-20T08:50:53.191Z,6534.00
2022-08-20T08:51:42.285Z,7471.00
2022-08-20T08:52:41.137Z,8650.00
2022-08-20T08:53:41.144Z,9514.00
2022-08-20T08:54:41.107Z,9849.00
2022-08-20T08:55:41.106Z,10208.00
2022-08-20T08:56:41.106Z,10184.00
2022-08-20T08:57:41.093Z,10144.00
2022-08-20T08:58:41.059Z,10173.00
2022-08-20T08:59:52.458Z,9908.00
2022-08-20T09:00:42.046Z,9567.00
2022-08-20T09:01:54.504Z,9333.00
2022-08-20T09:02:42.069Z,9276.00
2022-08-20T09:03:41.008Z,9134.00
2022-08-20T09:04:40.972Z,8751.00
2022-08-20T09:05:40.985Z,8741.00
2022-08-20T09:06:40.944Z,9096.00
2022-08-20T09:07:40.943Z,9824.00
2022-08-20T09:08:40.941Z,9846.00
2022-08-20T09:09:40.917Z,9720.00
2022-08-20T09:10:40.914Z,9394.00
2022-08-20T09:11:40.907Z,9462.00
2022-08-20T09:12:43.389Z,9513.00
2022-08-20T09:13:41.856Z,9549.00
2022-08-20T09:14:40.849Z,9526.00
2022-08-20T09:15:40.909Z,10118.00
2022-08-20T09:16:52.438Z,10560.00
2022-08-20T09:17:41.932Z,10606.00
2022-08-20T09:18:40.787Z,11409.00
2022-08-20T09:19:40.783Z,11416.00
2022-08-20T09:20:40.783Z,12341.00
2022-08-20T09:21:40.759Z,12960.00
2022-08-20T09:22:40.750Z,12509.00
2022-08-20T09:23:40.770Z,13196.00
2022-08-20T09:24:40.709Z,13364.00
2022-08-20T09:25:40.722Z,13132.00
2022-08-20T09:26:40.688Z,13514.00
2022-08-20T09:27:41.445Z,13754.00
2022-08-20T09:28:40.678Z,14183.00
2022-08-20T09:29:40.694Z,13525.00
2022-08-20T09:30:40.631Z,14264.00
2022-08-20T09:31:40.648Z,15385.00
2022-08-20T09:32:40.619Z,16012.00
2022-08-20T09:33:40.594Z,15862.00
2022-08-20T09:34:40.588Z,15652.00
2022-08-20T09:35:40.599Z,15199.00
2022-08-20T09:36:40.562Z,14984.00
2022-08-20T09:37:40.558Z,13973.00
2022-08-20T09:38:40.525Z,12790.00
2022-08-20T09:39:40.556Z,12358.00
2022-08-20T09:40:40.555Z,11017.00
2022-08-20T09:41:40.495Z,10249.00
2022-08-20T09:42:41.825Z,9249.00
2022-08-20T09:43:40.481Z,8879.00
2022-08-20T09:44:40.448Z,10202.00
2022-08-20T09:45:40.452Z,9951.00
2022-08-20T09:46:40.448Z,10402.00
2022-08-20T09:47:48.725Z,11373.00
2022-08-20T09:48:41.410Z,12342.00
2022-08-20T09:49:40.393Z,13028.00
2022-08-20T09:50:40.384Z,13522.00
2022-08-20T09:51:40.384Z,13392.00
2022-08-20T09:52:40.899Z,12689.00
2022-08-20T09:53:40.356Z,14291.00
2022-08-20T09:54:46.475Z,14071.00
2022-08-20T09:55:41.313Z,14207.00
2022-08-20T09:56:40.305Z,13437.00
2022-08-20T09:57:40.283Z,13721.00
2022-08-20T09:58:40.277Z,15104.00
2022-08-20T09:59:40.268Z,15797.00
2022-08-20T10:00:40.237Z,15660.00
2022-08-20T10:01:40.248Z,15596.00
2022-08-20T10:02:40.228Z,14574.00
2022-08-20T10:03:41.865Z,13808.00
2022-08-20T10:04:40.187Z,13310.00
2022-08-20T10:05:40.190Z,13221.00
2022-08-20T10:06:40.158Z,13736.00
2022-08-20T10:07:40.149Z,13370.00
2022-08-20T10:08:40.153Z,12924.00
2022-08-20T10:09:40.153Z,12417.00
2022-08-20T10:10:40.129Z,11556.00
2022-08-20T10:11:40.118Z,11024.00
2022-08-20T10:12:40.080Z,10648.00
2022-08-20T10:13:40.090Z,10649.00
2022-08-20T10:14:40.060Z,10599.00
2022-08-20T10:15:40.364Z,10615.00
2022-08-20T10:16:40.044Z,10644.00
2022-08-20T10:17:40.027Z,10306.00
2022-08-20T10:18:40.000Z,11125.00
2022-08-20T10:19:39.993Z,11221.00
2022-08-20T10:20:39.989Z,10278.00
2022-08-20T10:21:39.968Z,10730.00
2022-08-20T10:22:39.958Z,10871.00
2022-08-20T10:23:39.959Z,10816.00
2022-08-20T10:24:39.915Z,11169.00
2022-08-20T10:25:39.959Z,12285.00
2022-08-20T10:26:39.899Z,10773.00
2022-08-20T10:27:39.884Z,11761.00
2022-08-20T10:28:39.885Z,11592.00
2022-08-20T10:29:43.032Z,11272.00
2022-08-20T10:30:40.881Z,10853.00
2022-08-20T10:31:39.877Z,10696.00
2022-08-20T10:32:39.808Z,10790.00
2022-08-20T10:33:39.806Z,11074.00
2022-08-20T10:34:39.802Z,11455.00
2022-08-20T10:35:39.793Z,11980.00
2022-08-20T10:36:39.793Z,12353.00
2022-08-20T10:37:39.764Z,12996.00
2022-08-20T10:38:39.734Z,13766.00
2022-08-20T10:39:39.781Z,14492.00
2022-08-20T10:40:39.724Z,14716.00
2022-08-20T10:41:39.700Z,13284.00
2022-08-20T10:42:42.634Z,11173.00
2022-08-20T10:43:39.700Z,10490.00
2022-08-20T10:44:39.653Z,9168.00
2022-08-20T10:45:40.375Z,7765.00
2022-08-20T10:46:39.626Z,7823.00
2022-08-20T10:47:39.624Z,7981.00
2022-08-20T10:48:39.618Z,10816.00
2022-08-20T10:49:39.595Z,11057.00
2022-08-20T10:50:39.590Z,11349.00
2022-08-20T10:51:39.582Z,11468.00
2022-08-20T10:52:39.656Z,11380.00
2022-08-20T10:53:39.667Z,11307.00
2022-08-20T10:54:39.527Z,11155.00
2022-08-20T10:55:39.521Z,10967.00
2022-08-20T10:56:39.513Z,11017.00
2022-08-20T10:57:39.488Z,11146.00
2022-08-20T10:58:40.060Z,11288.00
2022-08-20T10:59:39.475Z,11321.00
2022-08-20T11:00:39.451Z,10923.00
2022-08-20T11:01:39.533Z,10468.00
2022-08-20T11:02:39.423Z,10179.00
2022-08-20T11:03:39.411Z,10419.00
2022-08-20T11:04:39.529Z,10726.00
2022-08-20T11:05:39.403Z,10819.00
2022-08-20T11:06:39.373Z,11102.00
2022-08-20T11:07:50.031Z,11471.00
2022-08-20T11:08:40.359Z,11764.00
2022-08-20T11:09:39.335Z,12091.00
2022-08-20T11:10:39.340Z,12507.00
2022-08-20T11:11:39.328Z,12878.00
2022-08-20T11:12:39.296Z,13321.00
2022-08-20T11:13:39.299Z,13509.00
2022-08-20T11:14:39.267Z,13223.00
2022-08-20T11:15:39.288Z,12851.00
2022-08-20T11:16:39.297Z,12694.00
2022-08-20T11:17:39.236Z,12676.00
2022-08-20T11:18:40.983Z,12715.00
2022-08-20T11:19:39.222Z,12884.00
2022-08-20T11:20:39.189Z,13241.00
2022-08-20T11:21:39.290Z,14092.00
2022-08-20T11:22:39.175Z,15194.00
2022-08-20T11:23:39.171Z,16069.00
2022-08-20T11:24:39.142Z,16619.00
2022-08-20T11:25:39.143Z,16317.00
2022-08-20T11:26:39.112Z,15558.00
2022-08-20T11:27:39.146Z,12449.00
2022-08-20T11:28:39.096Z,12475.00
2022-08-20T11:29:39.072Z,12828.00
2022-08-20T11:30:39.067Z,14163.00
2022-08-20T11:31:39.065Z,15333.00
2022-08-20T11:32:39.028Z,13494.00
2022-08-20T11:33:39.039Z,13417.00
2022-08-20T11:34:39.005Z,13652.00
2022-08-20T11:35:43.443Z,13634.00
2022-08-20T11:36:39.990Z,13996.00
2022-08-20T11:37:38.980Z,17708.00
2022-08-20T11:38:38.946Z,17976.00
2022-08-20T11:39:41.836Z,17810.00
2022-08-20T11:40:38.933Z,17996.00
2022-08-20T11:41:38.909Z,17181.00
2022-08-20T11:42:53.248Z,16121.00
2022-08-20T11:43:40.013Z,12827.00
2022-08-20T11:44:38.869Z,16184.00
2022-08-20T11:45:38.873Z,10500.00
2022-08-20T11:46:38.840Z,11215.00
2022-08-20T11:47:38.832Z,12285.00
2022-08-20T11:48:38.825Z,12976.00
2022-08-20T11:49:38.832Z,13122.00
2022-08-20T11:50:38.813Z,15149.00
2022-08-20T11:51:49.122Z,18514.00
2022-08-20T11:52:39.763Z,19075.00
2022-08-20T11:53:38.744Z,19867.00
2022-08-20T11:54:38.756Z,20804.00
2022-08-20T11:55:38.909Z,21350.00
2022-08-20T11:56:38.713Z,21350.00
2022-08-20T11:57:39.709Z,21688.00
2022-08-20T11:58:38.686Z,22019.00
2022-08-20T11:59:38.666Z,22538.00
2022-08-20T12:00:38.676Z,23434.00
2022-08-20T12:01:38.638Z,23224.00
2022-08-20T12:02:38.660Z,17242.00
2022-08-20T12:03:38.623Z,15745.00
2022-08-20T12:04:38.609Z,17513.00
2022-08-20T12:05:38.614Z,15384.00
2022-08-20T12:06:38.580Z,17199.00
2022-08-20T12:07:38.561Z,24741.00
2022-08-20T12:08:38.573Z,25218.00
2022-08-20T12:09:39.903Z,25673.00
2022-08-20T12:10:39.644Z,25617.00
2022-08-20T12:11:38.522Z,24702.00
2022-08-20T12:12:38.516Z,24606.00
2022-08-20T12:13:48.214Z,25948.00
2022-08-20T12:14:39.495Z,25658.00
2022-08-20T12:15:38.468Z,24268.00
2022-08-20T12:16:38.485Z,22028.00
2022-08-20T12:17:38.448Z,15056.00
2022-08-20T12:18:38.427Z,10284.00
2022-08-20T12:19:38.406Z,10162.00
2022-08-20T12:20:38.418Z,10356.00
2022-08-20T12:21:38.387Z,10533.00
2022-08-20T12:22:38.500Z,10911.00
2022-08-20T12:23:38.371Z,11328.00
2022-08-20T12:24:38.349Z,11674.00
2022-08-20T12:25:38.329Z,12509.00